Sylvan Lake, South Dakota
Current Conditions -  °F | °C
As of 4:53 PM on Thursday 18 Dec 2014 (Local Time) from KCUT Reporting Station
Clear Clear  
Wind Chill: -5°   Ceiling: Unl
Heat Index: -2°   Visibility: 10mi
Dew Point: -8°   Wind: 5mph
Humidity: 64%   Direction: 260°W
Pressure: 29.97"   Gusts: NA
Location:  43.6653°N, 103.766°W
Report Text: KCUT 182353Z AUTO 26004KT 10SM CLR M02/M08 A2997 RMK AO2 SLP186 T10171078 10039 21017 53008
Loading
Personal Weather Stations






























Interactive Weather Map New forecast layout! Learn more

10-Day Weather Forecast

Advertisements
Track Severe Weather on mobile